sensor_id;sensor_type;location;lat;lon;timestamp;P1;durP1;ratioP1;P2;durP2;ratioP2
11807;SDS011;5961;42.640;23.380;2023-04-24T00:00:03;7.57;;;4.87;;
11807;SDS011;5961;42.640;23.380;2023-04-24T00:02:31;9.67;;;5.10;;
11807;SDS011;5961;42.640;23.380;2023-04-24T00:04:59;8.23;;;4.83;;
11807;SDS011;5961;42.640;23.380;2023-04-24T00:07:29;7.33;;;4.57;;
11807;SDS011;5961;42.640;23.380;2023-04-24T00:09:55;4.63;;;4.17;;
11807;SDS011;5961;42.640;23.380;2023-04-24T00:12:22;7.80;;;4.97;;
11807;SDS011;5961;42.640;23.380;2023-04-24T00:14:49;5.73;;;4.70;;
11807;SDS011;5961;42.640;23.380;2023-04-24T00:17:16;5.23;;;4.73;;
11807;SDS011;5961;42.640;23.380;2023-04-24T00:19:45;6.17;;;4.50;;
11807;SDS011;5961;42.640;23.380;2023-04-24T00:22:11;8.30;;;5.27;;
11807;SDS011;5961;42.640;23.380;2023-04-24T00:24:40;7.13;;;5.27;;
11807;SDS011;5961;42.640;23.380;2023-04-24T00:27:07;6.53;;;4.93;;
11807;SDS011;5961;42.640;23.380;2023-04-24T00:29:34;9.47;;;5.20;;
11807;SDS011;5961;42.640;23.380;2023-04-24T00:32:01;8.40;;;5.00;;
11807;SDS011;5961;42.640;23.380;2023-04-24T00:34:27;9.00;;;5.17;;
11807;SDS011;5961;42.640;23.380;2023-04-24T00:36:54;6.93;;;5.07;;
11807;SDS011;5961;42.640;23.380;2023-04-24T00:39:21;9.23;;;5.10;;
11807;SDS011;5961;42.640;23.380;2023-04-24T00:41:50;6.43;;;4.97;;
11807;SDS011;5961;42.640;23.380;2023-04-24T00:44:17;8.23;;;5.00;;
11807;SDS011;5961;42.640;23.380;2023-04-24T00:46:44;8.73;;;4.90;;
11807;SDS011;5961;42.640;23.380;2023-04-24T00:49:12;6.03;;;4.90;;
11807;SDS011;5961;42.640;23.380;2023-04-24T00:51:40;5.83;;;4.70;;
11807;SDS011;5961;42.640;23.380;2023-04-24T00:54:10;6.60;;;4.90;;
11807;SDS011;5961;42.640;23.380;2023-04-24T00:56:37;5.53;;;4.50;;
11807;SDS011;5961;42.640;23.380;2023-04-24T00:59:05;7.70;;;4.87;;
11807;SDS011;5961;42.640;23.380;2023-04-24T01:01:32;6.53;;;5.00;;
11807;SDS011;5961;42.640;23.380;2023-04-24T01:03:59;5.70;;;4.70;;
11807;SDS011;5961;42.640;23.380;2023-04-24T01:06:28;7.63;;;5.20;;
11807;SDS011;5961;42.640;23.380;2023-04-24T01:08:56;6.67;;;5.17;;
11807;SDS011;5961;42.640;23.380;2023-04-24T01:11:23;5.80;;;4.97;;
11807;SDS011;5961;42.640;23.380;2023-04-24T01:13:51;7.60;;;4.90;;
11807;SDS011;5961;42.640;23.380;2023-04-24T01:16:19;5.77;;;5.00;;
11807;SDS011;5961;42.640;23.380;2023-04-24T01:18:46;6.03;;;5.30;;
11807;SDS011;5961;42.640;23.380;2023-04-24T01:21:14;9.23;;;5.33;;
11807;SDS011;5961;42.640;23.380;2023-04-24T01:23:43;7.70;;;4.97;;
11807;SDS011;5961;42.640;23.380;2023-04-24T01:26:10;5.63;;;5.07;;
11807;SDS011;5961;42.640;23.380;2023-04-24T01:28:37;8.47;;;5.10;;
11807;SDS011;5961;42.640;23.380;2023-04-24T01:31:04;6.40;;;5.57;;
11807;SDS011;5961;42.640;23.380;2023-04-24T01:33:30;7.20;;;4.93;;
11807;SDS011;5961;42.640;23.380;2023-04-24T01:35:58;6.77;;;5.10;;
11807;SDS011;5961;42.640;23.380;2023-04-24T01:38:25;7.70;;;5.10;;
11807;SDS011;5961;42.640;23.380;2023-04-24T01:40:53;7.23;;;5.10;;
11807;SDS011;5961;42.640;23.380;2023-04-24T01:43:19;7.63;;;5.03;;
11807;SDS011;5961;42.640;23.380;2023-04-24T01:45:47;7.17;;;5.20;;
11807;SDS011;5961;42.640;23.380;2023-04-24T01:48:13;6.80;;;5.80;;
11807;SDS011;5961;42.640;23.380;2023-04-24T01:50:40;6.47;;;5.37;;
11807;SDS011;5961;42.640;23.380;2023-04-24T01:53:07;6.43;;;5.27;;
11807;SDS011;5961;42.640;23.380;2023-04-24T01:55:34;7.23;;;5.67;;
11807;SDS011;5961;42.640;23.380;2023-04-24T01:58:02;6.70;;;5.87;;
11807;SDS011;5961;42.640;23.380;2023-04-24T02:00:28;8.10;;;6.40;;
11807;SDS011;5961;42.640;23.380;2023-04-24T02:02:55;7.40;;;6.00;;
11807;SDS011;5961;42.640;23.380;2023-04-24T02:05:22;8.27;;;5.57;;
11807;SDS011;5961;42.640;23.380;2023-04-24T02:07:49;6.70;;;5.93;;
11807;SDS011;5961;42.640;23.380;2023-04-24T02:10:15;7.53;;;5.83;;
11807;SDS011;5961;42.640;23.380;2023-04-24T02:12:42;9.57;;;6.70;;
11807;SDS011;5961;42.640;23.380;2023-04-24T02:15:10;8.63;;;6.70;;
11807;SDS011;5961;42.640;23.380;2023-04-24T02:17:38;11.20;;;7.00;;
11807;SDS011;5961;42.640;23.380;2023-04-24T02:20:05;8.97;;;6.47;;
11807;SDS011;5961;42.640;23.380;2023-04-24T02:22:33;8.90;;;6.70;;
11807;SDS011;5961;42.640;23.380;2023-04-24T02:25:00;7.10;;;6.03;;
11807;SDS011;5961;42.640;23.380;2023-04-24T02:27:27;7.53;;;6.30;;
11807;SDS011;5961;42.640;23.380;2023-04-24T02:29:53;8.10;;;6.27;;
11807;SDS011;5961;42.640;23.380;2023-04-24T02:32:22;8.57;;;6.43;;
11807;SDS011;5961;42.640;23.380;2023-04-24T02:34:48;9.90;;;6.67;;
11807;SDS011;5961;42.640;23.380;2023-04-24T02:37:15;7.47;;;6.00;;
11807;SDS011;5961;42.640;23.380;2023-04-24T02:39:42;7.23;;;6.20;;
11807;SDS011;5961;42.640;23.380;2023-04-24T02:42:08;7.40;;;5.93;;
11807;SDS011;5961;42.640;23.380;2023-04-24T02:44:35;8.60;;;6.00;;
11807;SDS011;5961;42.640;23.380;2023-04-24T02:47:02;7.37;;;6.23;;
11807;SDS011;5961;42.640;23.380;2023-04-24T02:49:30;10.73;;;6.43;;
11807;SDS011;5961;42.640;23.380;2023-04-24T02:51:57;7.80;;;5.57;;
11807;SDS011;5961;42.640;23.380;2023-04-24T02:54:24;11.67;;;5.80;;
11807;SDS011;5961;42.640;23.380;2023-04-24T02:56:50;10.10;;;6.43;;
11807;SDS011;5961;42.640;23.380;2023-04-24T02:59:17;10.83;;;6.20;;
11807;SDS011;5961;42.640;23.380;2023-04-24T03:01:44;8.90;;;6.00;;
11807;SDS011;5961;42.640;23.380;2023-04-24T03:04:11;9.00;;;5.53;;
11807;SDS011;5961;42.640;23.380;2023-04-24T03:06:39;11.07;;;6.03;;
11807;SDS011;5961;42.640;23.380;2023-04-24T03:09:05;8.97;;;5.37;;
11807;SDS011;5961;42.640;23.380;2023-04-24T03:11:32;8.80;;;6.10;;
11807;SDS011;5961;42.640;23.380;2023-04-24T03:13:59;10.53;;;6.30;;
11807;SDS011;5961;42.640;23.380;2023-04-24T03:16:25;8.37;;;6.30;;
11807;SDS011;5961;42.640;23.380;2023-04-24T03:18:52;6.83;;;6.07;;
11807;SDS011;5961;42.640;23.380;2023-04-24T03:21:19;8.70;;;6.30;;
11807;SDS011;5961;42.640;23.380;2023-04-24T03:23:47;10.53;;;6.20;;
11807;SDS011;5961;42.640;23.380;2023-04-24T03:26:13;12.07;;;6.57;;
11807;SDS011;5961;42.640;23.380;2023-04-24T03:28:40;11.27;;;5.83;;
11807;SDS011;5961;42.640;23.380;2023-04-24T03:31:07;10.73;;;5.80;;
11807;SDS011;5961;42.640;23.380;2023-04-24T03:33:34;9.73;;;6.27;;
11807;SDS011;5961;42.640;23.380;2023-04-24T03:36:01;8.57;;;6.13;;
11807;SDS011;5961;42.640;23.380;2023-04-24T03:38:27;8.90;;;6.20;;
11807;SDS011;5961;42.640;23.380;2023-04-24T03:40:55;9.00;;;5.93;;
11807;SDS011;5961;42.640;23.380;2023-04-24T03:43:22;8.50;;;6.23;;
11807;SDS011;5961;42.640;23.380;2023-04-24T03:45:49;9.03;;;6.13;;
11807;SDS011;5961;42.640;23.380;2023-04-24T03:48:16;9.97;;;6.40;;
11807;SDS011;5961;42.640;23.380;2023-04-24T03:50:42;12.30;;;6.87;;
11807;SDS011;5961;42.640;23.380;2023-04-24T03:53:09;11.00;;;7.17;;
11807;SDS011;5961;42.640;23.380;2023-04-24T03:55:36;9.27;;;6.40;;
11807;SDS011;5961;42.640;23.380;2023-04-24T03:58:04;10.03;;;7.10;;
11807;SDS011;5961;42.640;23.380;2023-04-24T04:00:31;8.23;;;6.60;;
11807;SDS011;5961;42.640;23.380;2023-04-24T04:02:58;12.97;;;7.33;;
11807;SDS011;5961;42.640;23.380;2023-04-24T04:05:25;11.93;;;7.97;;
11807;SDS011;5961;42.640;23.380;2023-04-24T04:07:51;10.60;;;7.27;;
11807;SDS011;5961;42.640;23.380;2023-04-24T04:10:18;14.93;;;8.27;;
11807;SDS011;5961;42.640;23.380;2023-04-24T04:12:45;11.87;;;8.80;;
11807;SDS011;5961;42.640;23.380;2023-04-24T04:15:13;11.43;;;8.53;;
11807;SDS011;5961;42.640;23.380;2023-04-24T04:17:39;13.27;;;8.87;;
11807;SDS011;5961;42.640;23.380;2023-04-24T04:20:06;13.30;;;8.27;;
11807;SDS011;5961;42.640;23.380;2023-04-24T04:22:35;14.83;;;8.80;;
11807;SDS011;5961;42.640;23.380;2023-04-24T04:25:01;13.27;;;8.50;;
11807;SDS011;5961;42.640;23.380;2023-04-24T04:27:29;12.60;;;8.80;;
11807;SDS011;5961;42.640;23.380;2023-04-24T04:29:57;10.63;;;8.20;;
11807;SDS011;5961;42.640;23.380;2023-04-24T04:32:25;11.43;;;8.33;;
11807;SDS011;5961;42.640;23.380;2023-04-24T04:34:52;13.00;;;8.57;;
11807;SDS011;5961;42.640;23.380;2023-04-24T04:37:19;10.17;;;8.20;;
11807;SDS011;5961;42.640;23.380;2023-04-24T04:39:46;14.30;;;8.43;;
11807;SDS011;5961;42.640;23.380;2023-04-24T04:42:12;12.93;;;8.60;;
11807;SDS011;5961;42.640;23.380;2023-04-24T04:44:40;13.47;;;9.10;;
11807;SDS011;5961;42.640;23.380;2023-04-24T04:47:07;11.70;;;8.20;;
11807;SDS011;5961;42.640;23.380;2023-04-24T04:49:37;15.30;;;8.03;;
11807;SDS011;5961;42.640;23.380;2023-04-24T04:52:04;12.17;;;8.30;;
11807;SDS011;5961;42.640;23.380;2023-04-24T04:54:31;10.33;;;8.47;;
11807;SDS011;5961;42.640;23.380;2023-04-24T04:56:57;15.73;;;8.40;;
11807;SDS011;5961;42.640;23.380;2023-04-24T04:59:25;12.13;;;8.13;;
11807;SDS011;5961;42.640;23.380;2023-04-24T05:01:52;10.77;;;8.10;;
11807;SDS011;5961;42.640;23.380;2023-04-24T05:04:19;15.37;;;8.40;;
11807;SDS011;5961;42.640;23.380;2023-04-24T05:06:47;12.30;;;8.20;;
11807;SDS011;5961;42.640;23.380;2023-04-24T05:09:16;12.13;;;9.67;;
11807;SDS011;5961;42.640;23.380;2023-04-24T05:11:42;11.27;;;8.17;;
11807;SDS011;5961;42.640;23.380;2023-04-24T05:14:09;11.67;;;7.70;;
11807;SDS011;5961;42.640;23.380;2023-04-24T05:16:37;17.83;;;7.50;;
11807;SDS011;5961;42.640;23.380;2023-04-24T05:19:04;13.67;;;7.50;;
11807;SDS011;5961;42.640;23.380;2023-04-24T05:21:31;12.97;;;8.20;;
11807;SDS011;5961;42.640;23.380;2023-04-24T05:23:59;13.07;;;8.07;;
11807;SDS011;5961;42.640;23.380;2023-04-24T05:26:26;20.20;;;12.40;;
11807;SDS011;5961;42.640;23.380;2023-04-24T05:28:52;12.33;;;7.87;;
11807;SDS011;5961;42.640;23.380;2023-04-24T05:31:19;16.70;;;9.47;;
11807;SDS011;5961;42.640;23.380;2023-04-24T05:33:46;14.47;;;8.83;;
11807;SDS011;5961;42.640;23.380;2023-04-24T05:36:12;13.53;;;8.87;;
11807;SDS011;5961;42.640;23.380;2023-04-24T05:38:39;12.17;;;8.93;;
11807;SDS011;5961;42.640;23.380;2023-04-24T05:41:07;17.83;;;8.60;;
11807;SDS011;5961;42.640;23.380;2023-04-24T05:43:34;17.73;;;9.60;;
11807;SDS011;5961;42.640;23.380;2023-04-24T05:46:00;12.97;;;8.27;;
11807;SDS011;5961;42.640;23.380;2023-04-24T05:48:27;14.70;;;7.23;;
11807;SDS011;5961;42.640;23.380;2023-04-24T05:50:54;15.33;;;9.40;;
11807;SDS011;5961;42.640;23.380;2023-04-24T05:53:21;11.60;;;7.67;;
11807;SDS011;5961;42.640;23.380;2023-04-24T05:55:47;11.10;;;7.67;;
11807;SDS011;5961;42.640;23.380;2023-04-24T05:58:16;13.73;;;8.50;;
11807;SDS011;5961;42.640;23.380;2023-04-24T06:00:42;11.30;;;8.03;;
11807;SDS011;5961;42.640;23.380;2023-04-24T06:03:11;17.53;;;8.17;;
11807;SDS011;5961;42.640;23.380;2023-04-24T06:05:38;10.37;;;8.07;;
11807;SDS011;5961;42.640;23.380;2023-04-24T06:08:04;13.67;;;7.87;;
11807;SDS011;5961;42.640;23.380;2023-04-24T06:10:31;17.80;;;9.37;;
11807;SDS011;5961;42.640;23.380;2023-04-24T06:12:58;18.47;;;8.70;;
11807;SDS011;5961;42.640;23.380;2023-04-24T06:15:28;12.97;;;8.23;;
11807;SDS011;5961;42.640;23.380;2023-04-24T06:17:56;15.37;;;8.27;;
11807;SDS011;5961;42.640;23.380;2023-04-24T06:20:23;12.30;;;8.73;;
11807;SDS011;5961;42.640;23.380;2023-04-24T06:22:51;14.47;;;8.73;;
11807;SDS011;5961;42.640;23.380;2023-04-24T06:25:17;15.27;;;9.13;;
11807;SDS011;5961;42.640;23.380;2023-04-24T06:27:44;11.17;;;8.77;;
11807;SDS011;5961;42.640;23.380;2023-04-24T06:30:11;12.23;;;7.30;;
11807;SDS011;5961;42.640;23.380;2023-04-24T06:32:40;15.10;;;8.53;;
11807;SDS011;5961;42.640;23.380;2023-04-24T06:35:07;16.77;;;7.73;;
11807;SDS011;5961;42.640;23.380;2023-04-24T06:37:35;13.27;;;8.27;;
11807;SDS011;5961;42.640;23.380;2023-04-24T06:40:02;12.63;;;8.23;;
11807;SDS011;5961;42.640;23.380;2023-04-24T06:42:29;11.63;;;8.20;;
11807;SDS011;5961;42.640;23.380;2023-04-24T06:44:55;12.23;;;7.70;;
11807;SDS011;5961;42.640;23.380;2023-04-24T06:47:22;18.77;;;7.67;;
11807;SDS011;5961;42.640;23.380;2023-04-24T06:49:50;9.00;;;7.10;;
11807;SDS011;5961;42.640;23.380;2023-04-24T06:52:17;10.23;;;7.07;;
11807;SDS011;5961;42.640;23.380;2023-04-24T06:54:44;14.50;;;7.90;;
11807;SDS011;5961;42.640;23.380;2023-04-24T06:57:11;9.90;;;7.60;;
11807;SDS011;5961;42.640;23.380;2023-04-24T06:59:38;11.23;;;7.20;;
11807;SDS011;5961;42.640;23.380;2023-04-24T07:02:04;10.30;;;8.00;;
11807;SDS011;5961;42.640;23.380;2023-04-24T07:04:31;10.97;;;7.00;;
11807;SDS011;5961;42.640;23.380;2023-04-24T07:06:59;12.33;;;7.10;;
11807;SDS011;5961;42.640;23.380;2023-04-24T07:09:26;13.57;;;8.03;;
11807;SDS011;5961;42.640;23.380;2023-04-24T07:11:53;12.30;;;7.70;;
11807;SDS011;5961;42.640;23.380;2023-04-24T07:14:21;11.17;;;8.80;;
11807;SDS011;5961;42.640;23.380;2023-04-24T07:16:48;14.03;;;9.20;;
11807;SDS011;5961;42.640;23.380;2023-04-24T07:19:15;10.53;;;8.87;;
11807;SDS011;5961;42.640;23.380;2023-04-24T07:21:42;12.97;;;7.97;;
11807;SDS011;5961;42.640;23.380;2023-04-24T07:24:10;11.80;;;8.23;;
11807;SDS011;5961;42.640;23.380;2023-04-24T07:26:38;16.93;;;11.43;;
11807;SDS011;5961;42.640;23.380;2023-04-24T07:29:05;17.47;;;9.67;;
11807;SDS011;5961;42.640;23.380;2023-04-24T07:31:32;11.60;;;7.60;;
11807;SDS011;5961;42.640;23.380;2023-04-24T07:33:58;13.57;;;7.67;;
11807;SDS011;5961;42.640;23.380;2023-04-24T07:36:25;11.37;;;7.23;;
11807;SDS011;5961;42.640;23.380;2023-04-24T07:38:53;13.23;;;7.67;;
11807;SDS011;5961;42.640;23.380;2023-04-24T07:41:21;13.33;;;10.00;;
11807;SDS011;5961;42.640;23.380;2023-04-24T07:43:49;15.27;;;9.83;;
11807;SDS011;5961;42.640;23.380;2023-04-24T07:46:16;12.50;;;7.97;;
11807;SDS011;5961;42.640;23.380;2023-04-24T07:48:42;12.70;;;8.40;;
11807;SDS011;5961;42.640;23.380;2023-04-24T07:51:09;13.73;;;8.60;;
11807;SDS011;5961;42.640;23.380;2023-04-24T07:53:38;11.13;;;7.70;;
11807;SDS011;5961;42.640;23.380;2023-04-24T07:56:05;10.17;;;8.00;;
11807;SDS011;5961;42.640;23.380;2023-04-24T07:58:33;11.17;;;7.57;;
11807;SDS011;5961;42.640;23.380;2023-04-24T08:01:00;12.57;;;6.80;;
11807;SDS011;5961;42.640;23.380;2023-04-24T08:03:26;8.30;;;6.00;;
11807;SDS011;5961;42.640;23.380;2023-04-24T08:05:53;12.23;;;7.63;;
11807;SDS011;5961;42.640;23.380;2023-04-24T08:08:20;15.53;;;7.27;;
11807;SDS011;5961;42.640;23.380;2023-04-24T08:10:48;13.40;;;9.80;;
11807;SDS011;5961;42.640;23.380;2023-04-24T08:13:15;15.10;;;9.80;;
11807;SDS011;5961;42.640;23.380;2023-04-24T08:15:43;16.93;;;10.33;;
11807;SDS011;5961;42.640;23.380;2023-04-24T08:18:10;25.83;;;12.87;;
11807;SDS011;5961;42.640;23.380;2023-04-24T08:20:38;17.17;;;7.87;;
11807;SDS011;5961;42.640;23.380;2023-04-24T08:23:05;14.77;;;7.30;;
11807;SDS011;5961;42.640;23.380;2023-04-24T08:25:32;9.13;;;6.80;;
11807;SDS011;5961;42.640;23.380;2023-04-24T08:28:00;8.10;;;7.00;;
11807;SDS011;5961;42.640;23.380;2023-04-24T08:30:28;13.00;;;9.03;;
11807;SDS011;5961;42.640;23.380;2023-04-24T08:32:56;12.90;;;7.30;;
11807;SDS011;5961;42.640;23.380;2023-04-24T08:35:23;10.87;;;7.27;;
11807;SDS011;5961;42.640;23.380;2023-04-24T08:37:50;15.60;;;7.37;;
11807;SDS011;5961;42.640;23.380;2023-04-24T08:40:18;8.83;;;7.00;;
11807;SDS011;5961;42.640;23.380;2023-04-24T08:42:48;13.43;;;7.10;;
11807;SDS011;5961;42.640;23.380;2023-04-24T08:45:18;8.13;;;7.20;;
11807;SDS011;5961;42.640;23.380;2023-04-24T08:47:45;9.33;;;6.97;;
11807;SDS011;5961;42.640;23.380;2023-04-24T08:50:15;6.97;;;6.23;;
11807;SDS011;5961;42.640;23.380;2023-04-24T08:52:43;11.97;;;6.80;;
11807;SDS011;5961;42.640;23.380;2023-04-24T08:55:10;9.73;;;6.47;;
11807;SDS011;5961;42.640;23.380;2023-04-24T08:57:37;10.00;;;6.40;;
11807;SDS011;5961;42.640;23.380;2023-04-24T09:00:05;7.17;;;5.87;;
11807;SDS011;5961;42.640;23.380;2023-04-24T09:02:33;9.10;;;6.43;;
11807;SDS011;5961;42.640;23.380;2023-04-24T09:05:00;14.73;;;6.57;;
11807;SDS011;5961;42.640;23.380;2023-04-24T09:07:29;9.67;;;6.73;;
11807;SDS011;5961;42.640;23.380;2023-04-24T09:10:01;11.00;;;6.67;;
11807;SDS011;5961;42.640;23.380;2023-04-24T09:12:28;12.33;;;9.30;;
11807;SDS011;5961;42.640;23.380;2023-04-24T09:14:55;6.93;;;5.77;;
11807;SDS011;5961;42.640;23.380;2023-04-24T09:17:23;7.93;;;5.87;;
11807;SDS011;5961;42.640;23.380;2023-04-24T09:19:52;11.43;;;7.10;;
11807;SDS011;5961;42.640;23.380;2023-04-24T09:22:18;10.90;;;6.57;;
11807;SDS011;5961;42.640;23.380;2023-04-24T09:24:47;7.03;;;6.13;;
11807;SDS011;5961;42.640;23.380;2023-04-24T09:27:14;7.23;;;6.53;;
11807;SDS011;5961;42.640;23.380;2023-04-24T09:29:53;7.33;;;5.70;;
11807;SDS011;5961;42.640;23.380;2023-04-24T09:32:20;10.90;;;6.33;;
11807;SDS011;5961;42.640;23.380;2023-04-24T09:34:47;9.30;;;6.33;;
11807;SDS011;5961;42.640;23.380;2023-04-24T09:37:20;9.77;;;6.17;;
11807;SDS011;5961;42.640;23.380;2023-04-24T09:40:08;7.67;;;5.27;;
11807;SDS011;5961;42.640;23.380;2023-04-24T09:42:36;13.60;;;6.30;;
11807;SDS011;5961;42.640;23.380;2023-04-24T09:45:03;9.50;;;6.13;;
11807;SDS011;5961;42.640;23.380;2023-04-24T09:47:35;12.27;;;5.50;;
11807;SDS011;5961;42.640;23.380;2023-04-24T09:50:08;7.97;;;5.70;;
11807;SDS011;5961;42.640;23.380;2023-04-24T09:52:36;8.83;;;5.50;;
11807;SDS011;5961;42.640;23.380;2023-04-24T09:55:11;8.00;;;5.60;;
11807;SDS011;5961;42.640;23.380;2023-04-24T09:57:52;9.37;;;5.37;;
11807;SDS011;5961;42.640;23.380;2023-04-24T10:00:23;12.10;;;6.77;;
11807;SDS011;5961;42.640;23.380;2023-04-24T10:02:56;8.10;;;5.80;;
11807;SDS011;5961;42.640;23.380;2023-04-24T10:05:24;10.97;;;5.40;;
11807;SDS011;5961;42.640;23.380;2023-04-24T10:07:55;8.73;;;4.97;;
11807;SDS011;5961;42.640;23.380;2023-04-24T10:10:24;6.97;;;5.83;;
11807;SDS011;5961;42.640;23.380;2023-04-24T10:12:52;9.13;;;5.40;;
11807;SDS011;5961;42.640;23.380;2023-04-24T10:15:19;6.13;;;4.97;;
11807;SDS011;5961;42.640;23.380;2023-04-24T10:17:46;5.90;;;5.30;;
11807;SDS011;5961;42.640;23.380;2023-04-24T10:20:18;7.57;;;5.03;;
11807;SDS011;5961;42.640;23.380;2023-04-24T10:22:46;8.30;;;5.23;;
11807;SDS011;5961;42.640;23.380;2023-04-24T10:25:16;8.30;;;5.00;;
11807;SDS011;5961;42.640;23.380;2023-04-24T10:27:46;7.43;;;5.57;;
11807;SDS011;5961;42.640;23.380;2023-04-24T10:30:14;8.13;;;4.97;;
11807;SDS011;5961;42.640;23.380;2023-04-24T10:32:42;9.27;;;5.10;;
11807;SDS011;5961;42.640;23.380;2023-04-24T10:35:09;7.47;;;5.20;;
11807;SDS011;5961;42.640;23.380;2023-04-24T10:37:36;7.57;;;5.10;;
11807;SDS011;5961;42.640;23.380;2023-04-24T10:40:06;5.63;;;4.67;;
11807;SDS011;5961;42.640;23.380;2023-04-24T10:42:34;5.87;;;4.83;;
11807;SDS011;5961;42.640;23.380;2023-04-24T10:45:07;9.40;;;5.20;;
11807;SDS011;5961;42.640;23.380;2023-04-24T10:47:42;8.70;;;5.03;;
11807;SDS011;5961;42.640;23.380;2023-04-24T10:50:16;5.70;;;5.00;;
11807;SDS011;5961;42.640;23.380;2023-04-24T10:52:43;7.83;;;5.17;;
11807;SDS011;5961;42.640;23.380;2023-04-24T10:55:12;10.40;;;5.07;;
11807;SDS011;5961;42.640;23.380;2023-04-24T10:57:39;8.00;;;4.27;;
11807;SDS011;5961;42.640;23.380;2023-04-24T11:00:18;5.00;;;4.50;;
11807;SDS011;5961;42.640;23.380;2023-04-24T11:02:46;7.27;;;4.27;;
11807;SDS011;5961;42.640;23.380;2023-04-24T11:05:18;5.83;;;4.77;;
11807;SDS011;5961;42.640;23.380;2023-04-24T11:10:38;6.70;;;4.80;;
11807;SDS011;5961;42.640;23.380;2023-04-24T11:13:06;7.83;;;4.73;;
11807;SDS011;5961;42.640;23.380;2023-04-24T11:15:34;6.40;;;4.50;;
11807;SDS011;5961;42.640;23.380;2023-04-24T11:18:01;6.37;;;4.80;;
11807;SDS011;5961;42.640;23.380;2023-04-24T11:20:28;5.73;;;4.30;;
11807;SDS011;5961;42.640;23.380;2023-04-24T11:22:55;6.53;;;4.53;;
11807;SDS011;5961;42.640;23.380;2023-04-24T11:25:30;9.07;;;4.30;;
11807;SDS011;5961;42.640;23.380;2023-04-24T11:28:02;7.47;;;4.73;;
11807;SDS011;5961;42.640;23.380;2023-04-24T11:30:30;5.23;;;3.93;;
11807;SDS011;5961;42.640;23.380;2023-04-24T11:33:02;5.10;;;4.60;;
11807;SDS011;5961;42.640;23.380;2023-04-24T11:35:30;8.23;;;4.73;;
11807;SDS011;5961;42.640;23.380;2023-04-24T11:38:02;4.37;;;4.00;;
11807;SDS011;5961;42.640;23.380;2023-04-24T11:40:30;3.77;;;3.37;;
11807;SDS011;5961;42.640;23.380;2023-04-24T11:42:59;5.40;;;3.20;;
11807;SDS011;5961;42.640;23.380;2023-04-24T11:45:26;6.80;;;3.40;;
11807;SDS011;5961;42.640;23.380;2023-04-24T11:47:56;3.73;;;3.43;;
11807;SDS011;5961;42.640;23.380;2023-04-24T11:50:25;4.17;;;3.50;;
11807;SDS011;5961;42.640;23.380;2023-04-24T11:52:54;5.17;;;4.27;;
11807;SDS011;5961;42.640;23.380;2023-04-24T11:55:25;4.20;;;3.80;;
11807;SDS011;5961;42.640;23.380;2023-04-24T11:57:54;4.10;;;3.70;;
11807;SDS011;5961;42.640;23.380;2023-04-24T12:00:23;4.23;;;3.90;;
11807;SDS011;5961;42.640;23.380;2023-04-24T12:02:51;3.67;;;3.37;;
11807;SDS011;5961;42.640;23.380;2023-04-24T12:05:30;3.80;;;3.50;;
11807;SDS011;5961;42.640;23.380;2023-04-24T12:07:57;3.27;;;3.07;;
11807;SDS011;5961;42.640;23.380;2023-04-24T12:10:24;4.20;;;3.90;;
11807;SDS011;5961;42.640;23.380;2023-04-24T12:12:52;4.30;;;3.90;;
11807;SDS011;5961;42.640;23.380;2023-04-24T12:15:20;6.43;;;4.00;;
11807;SDS011;5961;42.640;23.380;2023-04-24T12:17:47;5.10;;;4.30;;
11807;SDS011;5961;42.640;23.380;2023-04-24T12:20:16;5.63;;;4.10;;
11807;SDS011;5961;42.640;23.380;2023-04-24T12:22:45;4.90;;;4.40;;
11807;SDS011;5961;42.640;23.380;2023-04-24T12:25:13;6.23;;;4.20;;
11807;SDS011;5961;42.640;23.380;2023-04-24T12:27:41;5.90;;;4.50;;
11807;SDS011;5961;42.640;23.380;2023-04-24T12:30:10;6.00;;;4.50;;
11807;SDS011;5961;42.640;23.380;2023-04-24T12:32:40;5.23;;;3.77;;
11807;SDS011;5961;42.640;23.380;2023-04-24T12:35:08;5.67;;;3.93;;
11807;SDS011;5961;42.640;23.380;2023-04-24T12:37:35;5.10;;;3.70;;
11807;SDS011;5961;42.640;23.380;2023-04-24T12:40:04;7.77;;;3.40;;
11807;SDS011;5961;42.640;23.380;2023-04-24T12:42:33;5.40;;;3.27;;
11807;SDS011;5961;42.640;23.380;2023-04-24T12:45:01;4.10;;;3.70;;
11807;SDS011;5961;42.640;23.380;2023-04-24T12:47:30;3.70;;;3.40;;
11807;SDS011;5961;42.640;23.380;2023-04-24T12:49:57;4.40;;;4.00;;
11807;SDS011;5961;42.640;23.380;2023-04-24T12:52:24;9.13;;;4.10;;
11807;SDS011;5961;42.640;23.380;2023-04-24T12:54:52;3.90;;;3.60;;
11807;SDS011;5961;42.640;23.380;2023-04-24T12:57:21;4.57;;;3.93;;
11807;SDS011;5961;42.640;23.380;2023-04-24T12:59:48;4.70;;;4.30;;
11807;SDS011;5961;42.640;23.380;2023-04-24T13:02:15;8.73;;;5.13;;
11807;SDS011;5961;42.640;23.380;2023-04-24T13:04:43;4.77;;;4.33;;
11807;SDS011;5961;42.640;23.380;2023-04-24T13:07:11;8.10;;;4.60;;
11807;SDS011;5961;42.640;23.380;2023-04-24T13:09:39;5.03;;;4.53;;
11807;SDS011;5961;42.640;23.380;2023-04-24T13:12:06;5.87;;;4.50;;
11807;SDS011;5961;42.640;23.380;2023-04-24T13:14:34;6.43;;;4.77;;
11807;SDS011;5961;42.640;23.380;2023-04-24T13:17:01;7.97;;;4.63;;
11807;SDS011;5961;42.640;23.380;2023-04-24T13:19:28;5.13;;;4.23;;
11807;SDS011;5961;42.640;23.380;2023-04-24T13:21:55;5.60;;;4.93;;
11807;SDS011;5961;42.640;23.380;2023-04-24T13:24:24;7.80;;;4.87;;
11807;SDS011;5961;42.640;23.380;2023-04-24T13:26:51;6.57;;;5.13;;
11807;SDS011;5961;42.640;23.380;2023-04-24T13:29:18;6.43;;;5.30;;
11807;SDS011;5961;42.640;23.380;2023-04-24T13:31:47;5.50;;;5.00;;
11807;SDS011;5961;42.640;23.380;2023-04-24T13:34:14;5.73;;;4.93;;
11807;SDS011;5961;42.640;23.380;2023-04-24T13:36:41;7.13;;;4.30;;
11807;SDS011;5961;42.640;23.380;2023-04-24T13:39:08;7.03;;;5.07;;
11807;SDS011;5961;42.640;23.380;2023-04-24T13:41:36;5.40;;;4.90;;
11807;SDS011;5961;42.640;23.380;2023-04-24T13:44:03;5.80;;;5.17;;
11807;SDS011;5961;42.640;23.380;2023-04-24T13:46:31;7.23;;;5.10;;
11807;SDS011;5961;42.640;23.380;2023-04-24T13:48:59;5.20;;;4.70;;
11807;SDS011;5961;42.640;23.380;2023-04-24T13:51:26;5.70;;;4.80;;
11807;SDS011;5961;42.640;23.380;2023-04-24T13:53:53;9.47;;;4.77;;
11807;SDS011;5961;42.640;23.380;2023-04-24T13:56:20;5.07;;;4.53;;
11807;SDS011;5961;42.640;23.380;2023-04-24T13:58:47;5.30;;;4.57;;
11807;SDS011;5961;42.640;23.380;2023-04-24T14:01:14;7.37;;;5.07;;
11807;SDS011;5961;42.640;23.380;2023-04-24T14:03:42;5.43;;;4.93;;
11807;SDS011;5961;42.640;23.380;2023-04-24T14:06:10;5.20;;;4.70;;
11807;SDS011;5961;42.640;23.380;2023-04-24T14:08:37;7.60;;;5.47;;
11807;SDS011;5961;42.640;23.380;2023-04-24T14:11:04;7.40;;;4.80;;
11807;SDS011;5961;42.640;23.380;2023-04-24T14:13:30;10.07;;;5.37;;
11807;SDS011;5961;42.640;23.380;2023-04-24T14:15:59;9.83;;;5.60;;
11807;SDS011;5961;42.640;23.380;2023-04-24T14:18:25;7.30;;;5.37;;
11807;SDS011;5961;42.640;23.380;2023-04-24T14:20:52;6.60;;;5.07;;
11807;SDS011;5961;42.640;23.380;2023-04-24T14:23:20;6.53;;;4.43;;
11807;SDS011;5961;42.640;23.380;2023-04-24T14:25:47;5.27;;;4.27;;
11807;SDS011;5961;42.640;23.380;2023-04-24T14:28:16;5.40;;;4.03;;
11807;SDS011;5961;42.640;23.380;2023-04-24T14:30:43;8.27;;;4.50;;
11807;SDS011;5961;42.640;23.380;2023-04-24T14:33:10;4.93;;;4.27;;
11807;SDS011;5961;42.640;23.380;2023-04-24T14:35:37;4.43;;;4.03;;
11807;SDS011;5961;42.640;23.380;2023-04-24T14:38:05;4.93;;;3.80;;
11807;SDS011;5961;42.640;23.380;2023-04-24T14:40:33;4.68;;;4.20;;
11807;SDS011;5961;42.640;23.380;2023-04-24T14:43:00;4.20;;;3.80;;
11807;SDS011;5961;42.640;23.380;2023-04-24T14:45:26;5.45;;;3.90;;
11807;SDS011;5961;42.640;23.380;2023-04-24T14:47:53;5.80;;;3.87;;